createdAt,value
2019-05-16T00:01:31.264Z,8.10
2019-05-16T00:04:01.765Z,8.20
2019-05-16T00:06:32.234Z,8.20
2019-05-16T00:09:02.725Z,8.20
2019-05-16T00:11:33.593Z,8.20
2019-05-16T00:14:04.146Z,8.20
2019-05-16T00:16:34.597Z,8.20
2019-05-16T00:19:05.308Z,8.20
2019-05-16T00:21:35.748Z,8.20
2019-05-16T00:24:08.257Z,8.10
2019-05-16T00:26:39.073Z,8.10
2019-05-16T00:29:09.705Z,8.10
2019-05-16T00:31:40.176Z,8.10
2019-05-16T00:34:10.684Z,8.10
2019-05-16T00:36:41.166Z,8.10
2019-05-16T00:39:11.694Z,8.10
2019-05-16T00:41:42.402Z,8.10
2019-05-16T00:44:12.912Z,8.10
2019-05-16T00:46:43.480Z,8.10
2019-05-16T00:49:14.220Z,8.10
2019-05-16T00:51:45.287Z,8.10
2019-05-16T00:54:15.910Z,8.10
2019-05-16T00:56:48.705Z,8.10
2019-05-16T00:59:20.251Z,8.10
2019-05-16T01:01:50.719Z,8.10
2019-05-16T01:04:21.172Z,8.10
2019-05-16T01:06:51.630Z,8.10
2019-05-16T01:09:22.116Z,8.10
2019-05-16T01:11:52.659Z,8.10
2019-05-16T01:14:23.117Z,8.10
2019-05-16T01:16:53.750Z,8.10
2019-05-16T01:19:24.223Z,8.20
2019-05-16T01:21:54.690Z,8.10
2019-05-16T01:24:25.435Z,8.20
2019-05-16T01:26:57.782Z,8.20
2019-05-16T01:29:28.379Z,8.20
2019-05-16T01:31:59.131Z,8.20
2019-05-16T01:34:29.703Z,8.20
2019-05-16T01:37:00.249Z,8.20
2019-05-16T01:39:30.750Z,8.20
2019-05-16T01:42:01.324Z,8.20
2019-05-16T01:44:31.811Z,8.20
2019-05-16T01:47:02.297Z,8.20
2019-05-16T01:49:32.767Z,8.10
2019-05-16T01:52:03.235Z,8.20
2019-05-16T01:54:36.094Z,8.10
2019-05-16T01:57:08.122Z,8.10
2019-05-16T01:59:38.687Z,8.10
2019-05-16T02:02:09.182Z,8.10
2019-05-16T02:04:39.709Z,8.10
2019-05-16T02:07:10.258Z,8.10
2019-05-16T02:09:40.791Z,8.10
2019-05-16T02:12:11.832Z,8.10
2019-05-16T02:14:42.289Z,8.00
2019-05-16T02:17:13.078Z,8.00
2019-05-16T02:19:43.679Z,7.90
2019-05-16T02:22:14.357Z,7.90
2019-05-16T02:24:44.827Z,7.90
2019-05-16T02:27:15.393Z,7.90
2019-05-16T02:29:45.961Z,7.90
2019-05-16T02:32:16.477Z,7.90
2019-05-16T02:34:46.985Z,7.80
2019-05-16T02:37:25.845Z,7.80
2019-05-16T02:39:51.594Z,7.80
2019-05-16T02:42:22.017Z,7.80
2019-05-16T02:44:52.529Z,7.80
2019-05-16T02:47:23.069Z,7.80
2019-05-16T02:49:53.539Z,7.80
2019-05-16T02:52:24.204Z,7.80
2019-05-16T02:54:54.649Z,7.80
2019-05-16T02:57:25.353Z,7.80
2019-05-16T02:59:55.833Z,7.80
2019-05-16T03:02:26.357Z,7.80
2019-05-16T03:04:56.852Z,7.80
2019-05-16T03:07:41.186Z,7.80
2019-05-16T03:10:03.406Z,7.70
2019-05-16T03:12:36.539Z,7.70
2019-05-16T03:15:10.729Z,7.60
2019-05-16T03:17:44.197Z,7.50
2019-05-16T03:20:15.093Z,7.50
2019-05-16T03:22:46.919Z,7.40
2019-05-16T03:25:17.573Z,7.30
2019-05-16T03:27:51.133Z,7.30
2019-05-16T03:30:23.818Z,7.20
2019-05-16T03:32:55.164Z,7.10
2019-05-16T03:35:25.976Z,7.10
2019-05-16T03:38:00.639Z,7.00
2019-05-16T03:40:31.355Z,6.90
2019-05-16T03:43:01.920Z,6.90
2019-05-16T03:45:32.535Z,6.80
2019-05-16T03:48:03.635Z,6.80
2019-05-16T03:50:37.240Z,6.70
2019-05-16T03:53:11.681Z,6.70
2019-05-16T03:55:41.470Z,6.70
2019-05-16T03:58:11.979Z,6.60
2019-05-16T04:00:54.864Z,6.60
2019-05-16T04:03:28.492Z,6.60
2019-05-16T04:06:00.851Z,6.60
2019-05-16T04:08:31.175Z,6.50
2019-05-16T04:11:02.029Z,6.50
2019-05-16T04:13:33.021Z,6.50
2019-05-16T04:16:03.546Z,6.50
2019-05-16T04:18:34.131Z,6.50
2019-05-16T04:21:04.643Z,6.50
2019-05-16T04:23:35.341Z,6.60
2019-05-16T04:26:05.917Z,6.60
2019-05-16T04:28:36.824Z,6.60
2019-05-16T04:31:10.690Z,6.70
2019-05-16T04:33:41.588Z,6.80
2019-05-16T04:36:11.971Z,6.90
2019-05-16T04:38:46.520Z,7.00
2019-05-16T04:41:14.983Z,7.10
2019-05-16T04:43:50.315Z,7.20
2019-05-16T04:46:21.334Z,7.30
2019-05-16T04:48:54.343Z,7.50
2019-05-16T04:51:25.175Z,7.50
2019-05-16T04:53:55.675Z,7.60
2019-05-16T04:56:26.285Z,7.70
2019-05-16T04:58:56.772Z,7.80
2019-05-16T05:01:30.526Z,7.90
2019-05-16T05:04:09.652Z,8.00
2019-05-16T05:06:31.920Z,8.10
2019-05-16T05:09:03.620Z,8.20
2019-05-16T05:14:22.245Z,8.40
2019-05-16T05:16:52.733Z,8.40
2019-05-16T05:19:23.223Z,8.50
2019-05-16T05:21:53.801Z,8.50
2019-05-16T05:24:25.328Z,8.60
2019-05-16T05:26:55.893Z,8.70
2019-05-16T05:29:30.547Z,8.70
2019-05-16T05:32:04.418Z,8.80
2019-05-16T05:34:32.523Z,8.80
2019-05-16T05:37:03.023Z,8.90
2019-05-16T05:39:33.506Z,9.00
2019-05-16T05:42:04.084Z,9.00
2019-05-16T05:44:34.586Z,9.10
2019-05-16T05:47:05.140Z,9.10
2019-05-16T05:49:35.838Z,9.20
2019-05-16T05:52:06.593Z,9.20
2019-05-16T05:54:40.763Z,9.20
2019-05-16T05:57:11.184Z,9.20
2019-05-16T05:59:41.682Z,9.20
2019-05-16T06:02:12.152Z,9.20
2019-05-16T06:04:42.605Z,9.30
2019-05-16T06:07:13.078Z,9.30
2019-05-16T06:09:53.450Z,9.40
2019-05-16T06:12:16.152Z,9.50
2019-05-16T06:14:46.717Z,9.50
2019-05-16T06:17:19.921Z,9.60
2019-05-16T06:19:49.886Z,9.70
2019-05-16T06:22:20.684Z,9.70
2019-05-16T06:24:51.198Z,9.80
2019-05-16T06:27:21.683Z,9.90
2019-05-16T06:29:52.165Z,10.00
2019-05-16T06:32:22.694Z,10.00
2019-05-16T06:34:53.196Z,10.10
2019-05-16T06:37:26.465Z,10.10
2019-05-16T06:39:56.911Z,10.10
2019-05-16T06:42:29.992Z,10.10
2019-05-16T06:45:00.985Z,10.20
2019-05-16T06:47:31.617Z,10.30
2019-05-16T06:50:02.124Z,10.40
2019-05-16T06:52:32.683Z,10.50
2019-05-16T06:55:03.412Z,10.70
2019-05-16T06:57:33.918Z,10.80
2019-05-16T07:00:05.917Z,10.90
2019-05-16T07:02:36.622Z,11.10
2019-05-16T07:05:09.926Z,11.20
2019-05-16T07:07:40.615Z,11.30
2019-05-16T07:10:11.387Z,11.40
2019-05-16T07:12:41.915Z,11.40
2019-05-16T07:15:12.815Z,11.50
2019-05-16T07:17:43.275Z,11.60
2019-05-16T07:20:14.942Z,11.60
2019-05-16T07:22:50.119Z,11.70
2019-05-16T07:25:20.848Z,11.70
2019-05-16T07:27:53.123Z,11.70
2019-05-16T07:30:24.547Z,11.60
2019-05-16T07:32:55.081Z,11.60
2019-05-16T07:35:25.579Z,11.60
2019-05-16T07:37:56.123Z,11.70
2019-05-16T07:40:27.128Z,11.70
2019-05-16T07:43:00.029Z,11.80
2019-05-16T07:45:31.602Z,11.70
2019-05-16T07:48:02.153Z,11.60
2019-05-16T07:50:32.548Z,11.60
2019-05-16T07:53:04.201Z,11.70
2019-05-16T07:55:34.663Z,11.80
2019-05-16T07:58:05.181Z,12.00
2019-05-16T08:00:49.664Z,12.10
2019-05-16T08:03:10.609Z,12.20
2019-05-16T08:05:41.468Z,12.40
2019-05-16T08:08:12.126Z,12.40
2019-05-16T08:10:46.555Z,12.40
2019-05-16T08:13:17.592Z,12.40
2019-05-16T08:15:50.168Z,12.30
2019-05-16T08:18:21.487Z,12.10
2019-05-16T08:20:52.797Z,12.00
2019-05-16T08:23:23.828Z,12.00
2019-05-16T08:25:54.329Z,12.00
2019-05-16T08:28:24.839Z,12.00
2019-05-16T08:30:55.342Z,12.10
2019-05-16T08:33:25.877Z,12.20
2019-05-16T08:35:56.494Z,12.30
2019-05-16T08:38:27.047Z,12.50
2019-05-16T08:43:31.567Z,12.80
2019-05-16T08:46:02.098Z,13.00
2019-05-16T08:48:32.967Z,13.20
2019-05-16T08:51:03.749Z,13.40
2019-05-16T08:53:34.294Z,13.60
2019-05-16T08:56:06.249Z,13.90
2019-05-16T08:58:36.993Z,14.10
2019-05-16T09:01:14.659Z,14.30
2019-05-16T09:03:42.351Z,14.50
2019-05-16T09:06:12.816Z,14.70
2019-05-16T09:08:43.426Z,14.80
2019-05-16T09:10:31.602Z,12.60
2019-05-16T09:11:29.387Z,15.00
2019-05-16T09:13:47.772Z,15.10
2019-05-16T09:16:18.478Z,15.20
2019-05-16T09:18:50.986Z,15.30
2019-05-16T09:21:22.336Z,15.30
2019-05-16T09:23:53.722Z,15.30
2019-05-16T09:26:24.173Z,15.40
2019-05-16T09:28:57.039Z,15.50
2019-05-16T09:31:27.600Z,15.60
2019-05-16T09:33:58.357Z,15.70
2019-05-16T09:36:28.965Z,15.80
2019-05-16T09:39:02.262Z,15.90
2019-05-16T09:41:53.903Z,16.00
2019-05-16T09:44:08.707Z,16.10
2019-05-16T09:46:41.542Z,16.20
2019-05-16T09:49:19.408Z,16.30
2019-05-16T09:51:46.519Z,16.40
2019-05-16T09:54:16.933Z,16.50
2019-05-16T09:56:47.502Z,16.60
2019-05-16T09:59:18.116Z,16.70
2019-05-16T10:01:48.719Z,16.80
2019-05-16T10:04:19.197Z,16.90
2019-05-16T10:06:49.651Z,17.00
2019-05-16T10:09:20.153Z,17.10
2019-05-16T10:12:05.459Z,17.10
2019-05-16T10:14:22.800Z,17.00
2019-05-16T10:16:53.315Z,17.10
2019-05-16T10:19:23.824Z,17.10
2019-05-16T10:21:59.920Z,17.20
2019-05-16T10:24:27.067Z,17.20
2019-05-16T10:26:57.544Z,17.10
2019-05-16T10:29:28.071Z,17.20
2019-05-16T10:31:58.642Z,17.30
2019-05-16T10:34:29.134Z,17.50
2019-05-16T10:36:59.713Z,17.60
2019-05-16T10:39:30.217Z,17.70
2019-05-16T10:42:00.759Z,17.80
2019-05-16T10:44:31.885Z,17.80
2019-05-16T10:47:07.386Z,17.80
2019-05-16T10:49:40.901Z,17.80
2019-05-16T10:52:09.243Z,17.90
2019-05-16T10:54:54.299Z,18.00
2019-05-16T10:57:11.989Z,18.20
2019-05-16T11:00:09.357Z,18.30
2019-05-16T11:02:16.699Z,18.50
2019-05-16T11:05:00.167Z,18.60
2019-05-16T11:07:19.891Z,18.80
2019-05-16T11:09:58.386Z,19.00
2019-05-16T11:12:22.844Z,19.20
2019-05-16T11:14:53.407Z,19.40
2019-05-16T11:17:23.856Z,19.50
2019-05-16T11:19:54.401Z,19.60
2019-05-16T11:22:29.495Z,19.70
2019-05-16T11:24:57.292Z,19.70
2019-05-16T11:27:27.841Z,19.70
2019-05-16T11:29:58.372Z,19.70
2019-05-16T11:32:28.966Z,19.80
2019-05-16T11:34:59.456Z,19.80
2019-05-16T11:37:29.934Z,19.70
2019-05-16T11:40:00.443Z,19.70
2019-05-16T11:42:30.974Z,19.80
2019-05-16T11:45:01.849Z,19.80
2019-05-16T11:47:32.337Z,20.00
2019-05-16T11:50:02.829Z,20.20
2019-05-16T11:52:33.466Z,20.50
2019-05-16T11:55:07.186Z,20.80
2019-05-16T11:57:37.920Z,21.10
2019-05-16T12:00:11.671Z,21.40
2019-05-16T12:02:42.934Z,21.50
2019-05-16T12:05:13.915Z,21.50
2019-05-16T12:07:47.439Z,21.50
2019-05-16T12:10:18.324Z,21.30
2019-05-16T12:12:49.028Z,21.30
2019-05-16T12:15:20.331Z,21.20
2019-05-16T12:18:00.989Z,21.10
2019-05-16T12:20:23.115Z,20.90
2019-05-16T12:22:53.584Z,20.80
2019-05-16T12:25:27.316Z,20.60
2019-05-16T12:27:58.351Z,20.40
2019-05-16T12:30:28.893Z,20.10
2019-05-16T12:33:00.809Z,19.90
2019-05-16T12:35:31.300Z,19.60
2019-05-16T12:38:01.770Z,19.40
2019-05-16T12:40:32.218Z,19.20
2019-05-16T12:43:07.518Z,18.90
2019-05-16T12:45:38.686Z,18.70
2019-05-16T12:48:09.142Z,18.50
2019-05-16T12:50:39.627Z,18.30
2019-05-16T12:53:12.305Z,18.10
2019-05-16T12:55:42.899Z,17.90
2019-05-16T12:58:24.582Z,17.70
2019-05-16T13:00:54.108Z,17.60
2019-05-16T13:03:19.834Z,17.40
2019-05-16T13:05:50.339Z,17.30
2019-05-16T13:08:20.997Z,17.20
2019-05-16T13:10:54.510Z,17.10
2019-05-16T13:13:27.600Z,17.00
2019-05-16T13:15:57.698Z,16.90
2019-05-16T13:18:28.293Z,16.80
2019-05-16T13:20:58.876Z,16.70
2019-05-16T13:23:29.603Z,16.60
2019-05-16T13:26:00.578Z,16.60
2019-05-16T13:28:31.084Z,16.50
2019-05-16T13:31:01.862Z,16.50
2019-05-16T13:33:32.403Z,16.40
2019-05-16T13:36:03.071Z,16.40
2019-05-16T13:38:33.562Z,16.40
2019-05-16T13:41:07.150Z,16.40
2019-05-16T13:43:37.559Z,16.40
2019-05-16T13:46:08.309Z,16.30
2019-05-16T13:48:38.797Z,16.30
2019-05-16T13:51:15.232Z,16.20
2019-05-16T13:53:41.927Z,16.10
2019-05-16T13:56:13.653Z,16.10
2019-05-16T13:58:46.765Z,16.10
2019-05-16T14:01:17.303Z,16.00
2019-05-16T14:03:48.369Z,15.90
2019-05-16T14:06:19.044Z,15.80
2019-05-16T14:08:49.568Z,15.70
2019-05-16T14:11:20.054Z,15.60
2019-05-16T14:13:50.514Z,15.50
2019-05-16T14:16:21.005Z,15.50
2019-05-16T14:18:51.488Z,15.40
2019-05-16T14:21:22.042Z,15.40
2019-05-16T14:23:53.552Z,15.30
2019-05-16T14:26:24.375Z,15.30
2019-05-16T14:28:58.043Z,15.30
2019-05-16T14:31:28.580Z,15.20
2019-05-16T14:33:59.159Z,15.20
2019-05-16T14:36:31.134Z,15.20
2019-05-16T14:39:01.682Z,15.20
2019-05-16T14:41:32.182Z,15.20
2019-05-16T14:44:03.158Z,15.20
2019-05-16T14:46:33.821Z,15.10
2019-05-16T14:49:07.520Z,15.10
2019-05-16T14:51:38.419Z,15.00
2019-05-16T14:54:08.972Z,15.00
2019-05-16T14:56:39.462Z,15.00
2019-05-16T14:59:09.896Z,14.90
2019-05-16T15:01:40.402Z,14.90
2019-05-16T15:04:10.858Z,14.90
2019-05-16T15:06:41.496Z,14.80
2019-05-16T15:09:11.994Z,14.80
2019-05-16T15:11:42.533Z,14.70
2019-05-16T15:14:13.150Z,14.70
2019-05-16T15:16:43.932Z,14.70
2019-05-16T15:19:14.552Z,14.60
2019-05-16T15:21:47.588Z,14.60
2019-05-16T15:24:18.499Z,14.50
2019-05-16T15:26:50.411Z,14.50
2019-05-16T15:29:21.344Z,14.50
2019-05-16T15:31:53.242Z,14.50
2019-05-16T15:34:29.891Z,14.40
2019-05-16T15:37:00.072Z,14.40
2019-05-16T15:39:31.740Z,14.30
2019-05-16T15:42:02.266Z,14.30
2019-05-16T15:44:32.795Z,14.20
2019-05-16T15:47:03.414Z,14.20
2019-05-16T15:49:33.927Z,14.20
2019-05-16T15:52:07.096Z,14.10
2019-05-16T15:54:37.884Z,14.10
2019-05-16T15:57:08.442Z,14.00
2019-05-16T15:59:39.292Z,14.00
2019-05-16T16:02:09.845Z,13.90
2019-05-16T16:04:40.433Z,13.90
2019-05-16T16:07:10.939Z,13.90
2019-05-16T16:09:42.140Z,13.80
2019-05-16T16:12:16.979Z,13.80
2019-05-16T16:14:47.544Z,13.80
2019-05-16T16:17:18.285Z,13.70
2019-05-16T16:19:48.788Z,13.70
2019-05-16T16:22:26.828Z,13.70
2019-05-16T16:24:57.511Z,13.70
2019-05-16T16:27:30.234Z,13.60
2019-05-16T16:30:01.024Z,13.60
2019-05-16T16:32:31.642Z,13.60
2019-05-16T16:35:02.270Z,13.50
2019-05-16T16:37:32.792Z,13.50
2019-05-16T16:40:11.454Z,13.50
2019-05-16T16:42:39.149Z,13.50
2019-05-16T16:45:11.434Z,13.40
2019-05-16T16:47:41.962Z,13.40
2019-05-16T16:50:13.064Z,13.40
2019-05-16T16:52:43.552Z,13.30
2019-05-16T16:55:16.792Z,13.30
2019-05-16T16:57:47.248Z,13.30
2019-05-16T17:00:19.347Z,13.30
2019-05-16T17:03:02.248Z,13.20
2019-05-16T17:05:22.031Z,13.20
2019-05-16T17:07:52.516Z,13.20
2019-05-16T17:10:23.625Z,13.20
2019-05-16T17:12:57.706Z,13.10
2019-05-16T17:15:48.213Z,13.10
2019-05-16T17:18:19.015Z,13.10
2019-05-16T17:20:50.056Z,13.00
2019-05-16T17:23:21.195Z,13.00
2019-05-16T17:25:58.415Z,13.00
2019-05-16T17:28:40.212Z,13.00
2019-05-16T17:31:10.960Z,13.00
2019-05-16T17:33:41.482Z,12.90
2019-05-16T17:36:12.141Z,12.90
2019-05-16T17:38:42.933Z,12.90
2019-05-16T17:41:13.767Z,12.90
2019-05-16T17:43:44.235Z,12.90
2019-05-16T17:46:14.848Z,12.80
2019-05-16T17:48:46.856Z,12.80
2019-05-16T17:51:17.899Z,12.80
2019-05-16T17:53:52.594Z,12.70
2019-05-16T17:56:23.315Z,12.70
2019-05-16T17:58:53.972Z,12.70
2019-05-16T18:01:24.458Z,12.70
2019-05-16T18:03:57.329Z,12.70
2019-05-16T18:06:28.068Z,12.60
2019-05-16T18:08:58.769Z,12.60
2019-05-16T18:11:30.846Z,12.60
2019-05-16T18:14:01.567Z,12.60
2019-05-16T18:16:32.072Z,12.50
2019-05-16T18:19:02.773Z,12.50
2019-05-16T18:21:36.990Z,12.50
2019-05-16T18:24:09.009Z,12.40
2019-05-16T18:26:39.888Z,12.40
2019-05-16T18:29:10.586Z,12.40
2019-05-16T18:31:41.327Z,12.30
2019-05-16T18:34:11.855Z,12.30
2019-05-16T18:36:42.506Z,12.30
2019-05-16T18:39:13.568Z,12.20
2019-05-16T18:41:44.216Z,12.20
2019-05-16T18:44:17.052Z,12.20
2019-05-16T18:46:48.491Z,12.20
2019-05-16T18:49:19.529Z,12.20
2019-05-16T18:51:50.025Z,12.20
2019-05-16T18:54:22.524Z,12.20
2019-05-16T18:57:07.064Z,12.10
2019-05-16T18:59:40.361Z,12.10
2019-05-16T19:02:11.307Z,12.10
2019-05-16T19:04:58.054Z,12.00
2019-05-16T19:07:39.093Z,12.00
2019-05-16T19:10:12.044Z,12.00
2019-05-16T19:12:51.904Z,12.00
2019-05-16T19:18:02.861Z,12.00
2019-05-16T19:20:41.904Z,12.00
2019-05-16T19:23:12.566Z,11.90
2019-05-16T19:25:43.215Z,11.90
2019-05-16T19:28:13.790Z,11.90
2019-05-16T19:30:46.403Z,11.90
2019-05-16T19:33:17.413Z,11.90
2019-05-16T19:35:49.003Z,11.90
2019-05-16T19:38:19.700Z,11.80
2019-05-16T19:40:50.442Z,11.80
2019-05-16T19:43:20.884Z,11.80
2019-05-16T19:45:51.447Z,11.70
2019-05-16T19:48:21.927Z,11.70
2019-05-16T19:50:56.674Z,11.70
2019-05-16T19:53:26.948Z,11.60
2019-05-16T19:55:57.185Z,11.60
2019-05-16T19:58:27.900Z,11.60
2019-05-16T20:00:58.979Z,11.50
2019-05-16T20:03:29.618Z,11.50
2019-05-16T20:06:00.230Z,11.50
2019-05-16T20:08:32.516Z,11.50
2019-05-16T20:11:03.077Z,11.40
2019-05-16T20:13:33.598Z,11.40
2019-05-16T20:16:04.285Z,11.40
2019-05-16T20:18:37.209Z,11.40
2019-05-16T20:21:07.503Z,11.30
2019-05-16T20:23:38.190Z,11.30
2019-05-16T20:26:09.214Z,11.30
2019-05-16T20:28:40.726Z,11.30
2019-05-16T20:31:11.549Z,11.30
2019-05-16T20:33:42.071Z,11.20
2019-05-16T20:36:14.262Z,11.20
2019-05-16T20:38:46.589Z,11.20
2019-05-16T20:41:17.381Z,11.20
2019-05-16T20:43:47.860Z,11.20
2019-05-16T20:46:20.203Z,11.20
2019-05-16T20:48:50.699Z,11.20
2019-05-16T20:51:21.233Z,11.20
2019-05-16T20:53:51.727Z,11.20
2019-05-16T20:56:22.258Z,11.20
2019-05-16T20:58:52.840Z,11.20
2019-05-16T21:01:23.378Z,11.20
2019-05-16T21:03:54.261Z,11.20
2019-05-16T21:06:27.656Z,11.20
2019-05-16T21:09:00.996Z,11.20
2019-05-16T21:11:32.746Z,11.20
2019-05-16T21:14:03.295Z,11.20
2019-05-16T21:16:33.792Z,11.20
2019-05-16T21:19:06.839Z,11.20
2019-05-16T21:21:36.868Z,11.20
2019-05-16T21:24:07.589Z,11.20
2019-05-16T21:26:38.198Z,11.20
2019-05-16T21:29:08.786Z,11.10
2019-05-16T21:31:39.322Z,11.10
2019-05-16T21:34:09.892Z,11.10
2019-05-16T21:36:40.390Z,11.10
2019-05-16T21:39:10.942Z,11.10
2019-05-16T21:41:41.434Z,11.10
2019-05-16T21:44:12.244Z,11.10
2019-05-16T21:46:42.761Z,11.10
2019-05-16T21:49:13.272Z,11.10
2019-05-16T21:51:43.750Z,11.10
2019-05-16T21:54:14.393Z,11.10
2019-05-16T21:56:46.902Z,11.10
2019-05-16T21:59:22.151Z,11.00
2019-05-16T22:01:52.801Z,11.00
2019-05-16T22:04:23.372Z,11.00
2019-05-16T22:06:53.887Z,11.00
2019-05-16T22:09:26.481Z,11.00
2019-05-16T22:11:57.339Z,11.00
2019-05-16T22:14:36.845Z,11.00
2019-05-16T22:17:07.538Z,11.00
2019-05-16T22:19:38.188Z,11.00
2019-05-16T22:22:08.797Z,10.90
2019-05-16T22:24:39.307Z,10.90
2019-05-16T22:27:09.929Z,10.80
2019-05-16T22:29:40.489Z,10.70
2019-05-16T22:32:10.997Z,10.60
2019-05-16T22:34:41.861Z,10.50
2019-05-16T22:37:12.441Z,10.40
2019-05-16T22:39:44.792Z,10.30
2019-05-16T22:42:17.459Z,10.20
2019-05-16T22:44:47.578Z,10.10
2019-05-16T22:47:18.284Z,10.00
2019-05-16T22:49:48.895Z,9.90
2019-05-16T22:52:19.873Z,9.70
2019-05-16T22:54:50.703Z,9.60
2019-05-16T22:57:21.184Z,9.50
2019-05-16T22:59:51.714Z,9.40
2019-05-16T23:02:22.248Z,9.30
2019-05-16T23:04:52.777Z,9.20
2019-05-16T23:07:23.415Z,9.10
2019-05-16T23:09:56.295Z,9.00
2019-05-16T23:12:26.759Z,8.90
2019-05-16T23:14:57.229Z,8.90
2019-05-16T23:17:27.700Z,8.80
2019-05-16T23:19:58.207Z,8.70
2019-05-16T23:22:28.887Z,8.60
2019-05-16T23:24:59.398Z,8.50
2019-05-16T23:27:30.041Z,8.50
2019-05-16T23:30:00.691Z,8.40
2019-05-16T23:32:31.199Z,8.30
2019-05-16T23:35:01.717Z,8.20
2019-05-16T23:37:32.208Z,8.20
2019-05-16T23:40:02.726Z,8.10
2019-05-16T23:42:33.251Z,8.00
2019-05-16T23:45:04.012Z,8.00
2019-05-16T23:47:36.598Z,7.90
2019-05-16T23:50:08.327Z,7.80
2019-05-16T23:52:38.922Z,7.80
2019-05-16T23:55:10.017Z,7.70
2019-05-16T23:57:40.644Z,7.60
